sensor_id;sensor_type;location;lat;lon;timestamp;P1;durP1;ratioP1;P2;durP2;ratioP2
62030;SDS011;62035;52.094;5.112;2023-04-23T00:01:40;81.85;;;39.42;;
62030;SDS011;62035;52.094;5.112;2023-04-23T00:04:09;78.93;;;38.00;;
62030;SDS011;62035;52.094;5.112;2023-04-23T00:06:42;84.80;;;40.13;;
62030;SDS011;62035;52.094;5.112;2023-04-23T00:09:13;78.38;;;37.70;;
62030;SDS011;62035;52.094;5.112;2023-04-23T00:11:43;83.05;;;39.85;;
62030;SDS011;62035;52.094;5.112;2023-04-23T00:14:12;79.25;;;37.60;;
62030;SDS011;62035;52.094;5.112;2023-04-23T00:16:41;81.47;;;39.53;;
62030;SDS011;62035;52.094;5.112;2023-04-23T00:19:09;80.57;;;38.53;;
62030;SDS011;62035;52.094;5.112;2023-04-23T00:21:36;78.22;;;38.75;;
62030;SDS011;62035;52.094;5.112;2023-04-23T00:24:04;86.18;;;39.90;;
62030;SDS011;62035;52.094;5.112;2023-04-23T00:26:33;81.35;;;38.25;;
62030;SDS011;62035;52.094;5.112;2023-04-23T00:29:02;79.70;;;37.85;;
62030;SDS011;62035;52.094;5.112;2023-04-23T00:31:29;85.45;;;39.20;;
62030;SDS011;62035;52.094;5.112;2023-04-23T00:33:57;89.22;;;42.60;;
62030;SDS011;62035;52.094;5.112;2023-04-23T00:36:25;81.47;;;38.92;;
62030;SDS011;62035;52.094;5.112;2023-04-23T00:38:52;88.75;;;41.00;;
62030;SDS011;62035;52.094;5.112;2023-04-23T00:41:20;91.05;;;41.53;;
62030;SDS011;62035;52.094;5.112;2023-04-23T00:43:49;88.10;;;40.40;;
62030;SDS011;62035;52.094;5.112;2023-04-23T00:46:19;85.35;;;40.88;;
62030;SDS011;62035;52.094;5.112;2023-04-23T00:48:47;89.50;;;42.05;;
62030;SDS011;62035;52.094;5.112;2023-04-23T00:51:17;92.40;;;41.92;;
62030;SDS011;62035;52.094;5.112;2023-04-23T00:53:44;92.85;;;42.58;;
62030;SDS011;62035;52.094;5.112;2023-04-23T00:56:12;82.32;;;40.03;;
62030;SDS011;62035;52.094;5.112;2023-04-23T00:58:40;89.13;;;38.70;;
62030;SDS011;62035;52.094;5.112;2023-04-23T01:01:08;87.43;;;40.42;;
62030;SDS011;62035;52.094;5.112;2023-04-23T01:03:38;81.65;;;39.38;;
62030;SDS011;62035;52.094;5.112;2023-04-23T01:06:08;86.72;;;40.95;;
62030;SDS011;62035;52.094;5.112;2023-04-23T01:08:36;95.22;;;42.42;;
62030;SDS011;62035;52.094;5.112;2023-04-23T01:11:06;83.55;;;41.42;;
62030;SDS011;62035;52.094;5.112;2023-04-23T01:13:34;92.22;;;41.38;;
62030;SDS011;62035;52.094;5.112;2023-04-23T01:16:02;88.88;;;40.67;;
62030;SDS011;62035;52.094;5.112;2023-04-23T01:18:29;84.60;;;41.50;;
62030;SDS011;62035;52.094;5.112;2023-04-23T01:20:58;83.85;;;41.00;;
62030;SDS011;62035;52.094;5.112;2023-04-23T01:23:28;86.82;;;40.47;;
62030;SDS011;62035;52.094;5.112;2023-04-23T01:25:56;87.00;;;40.80;;
62030;SDS011;62035;52.094;5.112;2023-04-23T01:28:25;81.68;;;38.95;;
62030;SDS011;62035;52.094;5.112;2023-04-23T01:30:53;81.13;;;38.05;;
62030;SDS011;62035;52.094;5.112;2023-04-23T01:33:22;80.75;;;37.30;;
62030;SDS011;62035;52.094;5.112;2023-04-23T01:35:51;74.72;;;37.17;;
62030;SDS011;62035;52.094;5.112;2023-04-23T01:38:20;81.78;;;37.83;;
62030;SDS011;62035;52.094;5.112;2023-04-23T01:40:50;82.93;;;39.67;;
62030;SDS011;62035;52.094;5.112;2023-04-23T01:43:19;78.28;;;37.10;;
62030;SDS011;62035;52.094;5.112;2023-04-23T01:45:48;77.63;;;37.88;;
62030;SDS011;62035;52.094;5.112;2023-04-23T01:48:15;81.75;;;36.45;;
62030;SDS011;62035;52.094;5.112;2023-04-23T01:50:44;83.13;;;39.03;;
62030;SDS011;62035;52.094;5.112;2023-04-23T01:53:11;78.28;;;38.00;;
62030;SDS011;62035;52.094;5.112;2023-04-23T01:55:40;83.50;;;37.88;;
62030;SDS011;62035;52.094;5.112;2023-04-23T01:58:14;81.82;;;36.92;;
62030;SDS011;62035;52.094;5.112;2023-04-23T02:00:41;76.00;;;36.80;;
62030;SDS011;62035;52.094;5.112;2023-04-23T02:03:09;78.75;;;37.00;;
62030;SDS011;62035;52.094;5.112;2023-04-23T02:05:37;77.85;;;35.08;;
62030;SDS011;62035;52.094;5.112;2023-04-23T02:08:07;78.70;;;35.97;;
62030;SDS011;62035;52.094;5.112;2023-04-23T02:10:35;72.18;;;34.72;;
62030;SDS011;62035;52.094;5.112;2023-04-23T02:13:03;66.63;;;33.22;;
62030;SDS011;62035;52.094;5.112;2023-04-23T02:15:32;72.22;;;35.33;;
62030;SDS011;62035;52.094;5.112;2023-04-23T02:18:02;73.35;;;35.88;;
62030;SDS011;62035;52.094;5.112;2023-04-23T02:20:31;75.07;;;35.35;;
62030;SDS011;62035;52.094;5.112;2023-04-23T02:23:00;71.47;;;33.83;;
62030;SDS011;62035;52.094;5.112;2023-04-23T02:25:28;69.35;;;33.15;;
62030;SDS011;62035;52.094;5.112;2023-04-23T02:27:57;70.03;;;34.42;;
62030;SDS011;62035;52.094;5.112;2023-04-23T02:30:26;68.32;;;33.88;;
62030;SDS011;62035;52.094;5.112;2023-04-23T02:32:55;67.22;;;32.95;;
62030;SDS011;62035;52.094;5.112;2023-04-23T02:35:23;67.50;;;33.63;;
62030;SDS011;62035;52.094;5.112;2023-04-23T02:37:51;65.95;;;32.60;;
62030;SDS011;62035;52.094;5.112;2023-04-23T02:40:20;69.05;;;33.05;;
62030;SDS011;62035;52.094;5.112;2023-04-23T02:42:48;66.80;;;31.77;;
62030;SDS011;62035;52.094;5.112;2023-04-23T02:45:16;64.55;;;31.23;;
62030;SDS011;62035;52.094;5.112;2023-04-23T02:47:43;71.00;;;32.88;;
62030;SDS011;62035;52.094;5.112;2023-04-23T02:50:12;62.13;;;32.13;;
62030;SDS011;62035;52.094;5.112;2023-04-23T02:52:41;66.95;;;32.17;;
62030;SDS011;62035;52.094;5.112;2023-04-23T02:55:08;62.25;;;31.65;;
62030;SDS011;62035;52.094;5.112;2023-04-23T02:57:36;65.75;;;31.65;;
62030;SDS011;62035;52.094;5.112;2023-04-23T03:00:04;58.90;;;29.55;;
62030;SDS011;62035;52.094;5.112;2023-04-23T03:02:34;60.85;;;30.95;;
62030;SDS011;62035;52.094;5.112;2023-04-23T03:05:02;62.13;;;28.20;;
62030;SDS011;62035;52.094;5.112;2023-04-23T03:07:32;59.80;;;30.80;;
62030;SDS011;62035;52.094;5.112;2023-04-23T03:09:59;60.08;;;30.10;;
62030;SDS011;62035;52.094;5.112;2023-04-23T03:12:27;58.15;;;28.67;;
62030;SDS011;62035;52.094;5.112;2023-04-23T03:14:55;58.55;;;29.48;;
62030;SDS011;62035;52.094;5.112;2023-04-23T03:17:22;54.03;;;29.58;;
62030;SDS011;62035;52.094;5.112;2023-04-23T03:19:50;57.17;;;29.48;;
62030;SDS011;62035;52.094;5.112;2023-04-23T03:22:18;54.50;;;28.42;;
62030;SDS011;62035;52.094;5.112;2023-04-23T03:24:47;56.50;;;28.73;;
62030;SDS011;62035;52.094;5.112;2023-04-23T03:27:14;51.13;;;26.65;;
62030;SDS011;62035;52.094;5.112;2023-04-23T03:29:42;51.50;;;26.83;;
62030;SDS011;62035;52.094;5.112;2023-04-23T03:32:10;55.08;;;26.73;;
62030;SDS011;62035;52.094;5.112;2023-04-23T03:34:37;50.08;;;26.20;;
62030;SDS011;62035;52.094;5.112;2023-04-23T03:37:05;48.95;;;26.02;;
62030;SDS011;62035;52.094;5.112;2023-04-23T03:39:33;47.88;;;25.05;;
62030;SDS011;62035;52.094;5.112;2023-04-23T03:42:01;49.85;;;26.52;;
62030;SDS011;62035;52.094;5.112;2023-04-23T03:44:30;47.55;;;26.52;;
62030;SDS011;62035;52.094;5.112;2023-04-23T03:46:57;48.75;;;26.25;;
62030;SDS011;62035;52.094;5.112;2023-04-23T03:49:25;48.60;;;25.25;;
62030;SDS011;62035;52.094;5.112;2023-04-23T03:51:53;46.53;;;25.15;;
62030;SDS011;62035;52.094;5.112;2023-04-23T03:54:21;45.22;;;24.30;;
62030;SDS011;62035;52.094;5.112;2023-04-23T03:56:50;46.55;;;26.60;;
62030;SDS011;62035;52.094;5.112;2023-04-23T03:59:19;44.88;;;25.15;;
62030;SDS011;62035;52.094;5.112;2023-04-23T04:01:47;43.08;;;23.15;;
62030;SDS011;62035;52.094;5.112;2023-04-23T04:04:15;46.53;;;24.15;;
62030;SDS011;62035;52.094;5.112;2023-04-23T04:06:42;40.72;;;23.70;;
62030;SDS011;62035;52.094;5.112;2023-04-23T04:09:10;42.20;;;23.45;;
62030;SDS011;62035;52.094;5.112;2023-04-23T04:11:38;39.60;;;23.20;;
62030;SDS011;62035;52.094;5.112;2023-04-23T04:14:05;37.10;;;21.20;;
62030;SDS011;62035;52.094;5.112;2023-04-23T04:16:35;35.45;;;22.10;;
62030;SDS011;62035;52.094;5.112;2023-04-23T04:19:02;36.92;;;20.73;;
62030;SDS011;62035;52.094;5.112;2023-04-23T04:21:30;37.33;;;21.55;;
62030;SDS011;62035;52.094;5.112;2023-04-23T04:23:58;36.08;;;21.50;;
62030;SDS011;62035;52.094;5.112;2023-04-23T04:26:27;32.00;;;21.55;;
62030;SDS011;62035;52.094;5.112;2023-04-23T04:28:57;34.90;;;20.77;;
62030;SDS011;62035;52.094;5.112;2023-04-23T04:31:26;30.75;;;20.23;;
62030;SDS011;62035;52.094;5.112;2023-04-23T04:33:55;32.80;;;19.83;;
62030;SDS011;62035;52.094;5.112;2023-04-23T04:36:23;35.63;;;21.40;;
62030;SDS011;62035;52.094;5.112;2023-04-23T04:38:51;36.25;;;21.77;;
62030;SDS011;62035;52.094;5.112;2023-04-23T04:41:20;34.65;;;20.60;;
62030;SDS011;62035;52.094;5.112;2023-04-23T04:43:50;34.55;;;20.13;;
62030;SDS011;62035;52.094;5.112;2023-04-23T04:46:18;34.38;;;21.30;;
62030;SDS011;62035;52.094;5.112;2023-04-23T04:48:45;32.60;;;20.88;;
62030;SDS011;62035;52.094;5.112;2023-04-23T04:51:14;35.78;;;20.92;;
62030;SDS011;62035;52.094;5.112;2023-04-23T04:53:42;36.33;;;21.27;;
62030;SDS011;62035;52.094;5.112;2023-04-23T04:56:10;30.20;;;19.95;;
62030;SDS011;62035;52.094;5.112;2023-04-23T04:58:37;32.60;;;20.38;;
62030;SDS011;62035;52.094;5.112;2023-04-23T05:01:05;34.67;;;20.88;;
62030;SDS011;62035;52.094;5.112;2023-04-23T05:03:33;33.63;;;19.50;;
62030;SDS011;62035;52.094;5.112;2023-04-23T05:06:01;32.58;;;19.25;;
62030;SDS011;62035;52.094;5.112;2023-04-23T05:08:31;31.02;;;20.05;;
62030;SDS011;62035;52.094;5.112;2023-04-23T05:10:59;31.65;;;19.88;;
62030;SDS011;62035;52.094;5.112;2023-04-23T05:13:28;32.28;;;18.92;;
62030;SDS011;62035;52.094;5.112;2023-04-23T05:15:56;28.15;;;19.27;;
62030;SDS011;62035;52.094;5.112;2023-04-23T05:18:24;28.95;;;18.63;;
62030;SDS011;62035;52.094;5.112;2023-04-23T05:20:51;32.35;;;19.13;;
62030;SDS011;62035;52.094;5.112;2023-04-23T05:23:19;31.48;;;19.85;;
62030;SDS011;62035;52.094;5.112;2023-04-23T05:25:48;31.08;;;18.55;;
62030;SDS011;62035;52.094;5.112;2023-04-23T05:28:18;30.45;;;18.77;;
62030;SDS011;62035;52.094;5.112;2023-04-23T05:30:45;30.60;;;18.38;;
62030;SDS011;62035;52.094;5.112;2023-04-23T05:33:13;28.88;;;18.25;;
62030;SDS011;62035;52.094;5.112;2023-04-23T05:35:41;29.48;;;18.02;;
62030;SDS011;62035;52.094;5.112;2023-04-23T05:38:09;29.27;;;18.60;;
62030;SDS011;62035;52.094;5.112;2023-04-23T05:40:37;30.38;;;18.17;;
62030;SDS011;62035;52.094;5.112;2023-04-23T05:43:06;28.60;;;18.00;;
62030;SDS011;62035;52.094;5.112;2023-04-23T05:45:34;29.30;;;17.92;;
62030;SDS011;62035;52.094;5.112;2023-04-23T05:48:01;31.23;;;17.60;;
62030;SDS011;62035;52.094;5.112;2023-04-23T05:50:29;26.58;;;16.55;;
62030;SDS011;62035;52.094;5.112;2023-04-23T05:52:57;26.70;;;17.25;;
62030;SDS011;62035;52.094;5.112;2023-04-23T05:55:24;27.90;;;18.20;;
62030;SDS011;62035;52.094;5.112;2023-04-23T05:57:52;29.13;;;16.55;;
62030;SDS011;62035;52.094;5.112;2023-04-23T06:00:21;26.02;;;16.05;;
62030;SDS011;62035;52.094;5.112;2023-04-23T06:02:49;32.47;;;17.00;;
62030;SDS011;62035;52.094;5.112;2023-04-23T06:05:16;22.50;;;15.73;;
62030;SDS011;62035;52.094;5.112;2023-04-23T06:07:44;24.38;;;16.35;;
62030;SDS011;62035;52.094;5.112;2023-04-23T06:10:11;25.92;;;16.40;;
62030;SDS011;62035;52.094;5.112;2023-04-23T06:12:39;27.13;;;15.45;;
62030;SDS011;62035;52.094;5.112;2023-04-23T06:15:07;21.08;;;14.52;;
62030;SDS011;62035;52.094;5.112;2023-04-23T06:17:37;24.98;;;15.13;;
62030;SDS011;62035;52.094;5.112;2023-04-23T06:20:06;20.98;;;14.23;;
62030;SDS011;62035;52.094;5.112;2023-04-23T06:22:36;21.83;;;14.82;;
62030;SDS011;62035;52.094;5.112;2023-04-23T06:25:05;21.52;;;13.93;;
62030;SDS011;62035;52.094;5.112;2023-04-23T06:27:34;21.38;;;13.88;;
62030;SDS011;62035;52.094;5.112;2023-04-23T06:30:01;20.27;;;12.60;;
62030;SDS011;62035;52.094;5.112;2023-04-23T06:32:30;18.48;;;12.32;;
62030;SDS011;62035;52.094;5.112;2023-04-23T06:34:59;19.45;;;12.57;;
62030;SDS011;62035;52.094;5.112;2023-04-23T06:37:26;18.48;;;12.35;;
62030;SDS011;62035;52.094;5.112;2023-04-23T06:39:55;17.65;;;12.18;;
62030;SDS011;62035;52.094;5.112;2023-04-23T06:42:23;17.92;;;12.65;;
62030;SDS011;62035;52.094;5.112;2023-04-23T06:44:51;18.88;;;11.18;;
62030;SDS011;62035;52.094;5.112;2023-04-23T06:47:19;17.25;;;11.23;;
62030;SDS011;62035;52.094;5.112;2023-04-23T06:49:47;16.38;;;10.57;;
62030;SDS011;62035;52.094;5.112;2023-04-23T06:52:16;16.15;;;10.80;;
62030;SDS011;62035;52.094;5.112;2023-04-23T06:54:43;16.17;;;11.00;;
62030;SDS011;62035;52.094;5.112;2023-04-23T06:57:11;13.15;;;10.25;;
62030;SDS011;62035;52.094;5.112;2023-04-23T06:59:39;14.73;;;10.25;;
62030;SDS011;62035;52.094;5.112;2023-04-23T07:02:06;15.88;;;10.13;;
62030;SDS011;62035;52.094;5.112;2023-04-23T07:04:34;16.10;;;9.52;;
62030;SDS011;62035;52.094;5.112;2023-04-23T07:07:02;13.27;;;7.90;;
62030;SDS011;62035;52.094;5.112;2023-04-23T07:09:32;17.63;;;9.18;;
62030;SDS011;62035;52.094;5.112;2023-04-23T07:11:59;19.42;;;8.85;;
62030;SDS011;62035;52.094;5.112;2023-04-23T07:14:28;11.35;;;8.82;;
62030;SDS011;62035;52.094;5.112;2023-04-23T07:16:55;15.80;;;9.05;;
62030;SDS011;62035;52.094;5.112;2023-04-23T07:19:23;17.50;;;8.88;;
62030;SDS011;62035;52.094;5.112;2023-04-23T07:21:52;11.15;;;7.93;;
62030;SDS011;62035;52.094;5.112;2023-04-23T07:24:19;16.13;;;8.82;;
62030;SDS011;62035;52.094;5.112;2023-04-23T07:26:49;12.73;;;7.72;;
62030;SDS011;62035;52.094;5.112;2023-04-23T07:29:16;14.75;;;8.48;;
62030;SDS011;62035;52.094;5.112;2023-04-23T07:31:44;15.07;;;8.30;;
62030;SDS011;62035;52.094;5.112;2023-04-23T07:34:13;12.63;;;7.25;;
62030;SDS011;62035;52.094;5.112;2023-04-23T07:36:40;13.60;;;7.13;;
62030;SDS011;62035;52.094;5.112;2023-04-23T07:39:08;14.95;;;7.13;;
62030;SDS011;62035;52.094;5.112;2023-04-23T07:41:35;14.05;;;7.28;;
62030;SDS011;62035;52.094;5.112;2023-04-23T07:44:05;14.70;;;7.85;;
62030;SDS011;62035;52.094;5.112;2023-04-23T07:46:33;12.40;;;6.93;;
62030;SDS011;62035;52.094;5.112;2023-04-23T07:49:00;15.50;;;7.05;;
62030;SDS011;62035;52.094;5.112;2023-04-23T07:51:28;12.35;;;7.18;;
62030;SDS011;62035;52.094;5.112;2023-04-23T07:53:56;11.50;;;7.47;;
62030;SDS011;62035;52.094;5.112;2023-04-23T07:56:24;12.18;;;6.65;;
62030;SDS011;62035;52.094;5.112;2023-04-23T07:58:51;12.40;;;6.53;;
62030;SDS011;62035;52.094;5.112;2023-04-23T08:01:22;10.88;;;6.10;;
62030;SDS011;62035;52.094;5.112;2023-04-23T08:03:50;12.18;;;5.95;;
62030;SDS011;62035;52.094;5.112;2023-04-23T08:06:20;13.85;;;6.22;;
62030;SDS011;62035;52.094;5.112;2023-04-23T08:08:48;14.25;;;6.28;;
62030;SDS011;62035;52.094;5.112;2023-04-23T08:11:16;13.73;;;6.38;;
62030;SDS011;62035;52.094;5.112;2023-04-23T08:13:44;17.05;;;6.10;;
62030;SDS011;62035;52.094;5.112;2023-04-23T08:16:12;11.40;;;5.95;;
62030;SDS011;62035;52.094;5.112;2023-04-23T08:18:41;14.40;;;6.20;;
62030;SDS011;62035;52.094;5.112;2023-04-23T08:21:08;11.80;;;5.15;;
62030;SDS011;62035;52.094;5.112;2023-04-23T08:23:37;13.52;;;5.38;;
62030;SDS011;62035;52.094;5.112;2023-04-23T08:26:05;15.32;;;5.40;;
62030;SDS011;62035;52.094;5.112;2023-04-23T08:28:33;12.38;;;4.68;;
62030;SDS011;62035;52.094;5.112;2023-04-23T08:31:00;7.60;;;4.60;;
62030;SDS011;62035;52.094;5.112;2023-04-23T08:33:28;17.13;;;5.63;;
62030;SDS011;62035;52.094;5.112;2023-04-23T08:35:57;9.57;;;5.18;;
62030;SDS011;62035;52.094;5.112;2023-04-23T08:38:24;15.25;;;5.03;;
62030;SDS011;62035;52.094;5.112;2023-04-23T08:40:54;15.02;;;5.05;;
62030;SDS011;62035;52.094;5.112;2023-04-23T08:43:30;10.05;;;4.57;;
62030;SDS011;62035;52.094;5.112;2023-04-23T08:46:05;15.68;;;4.38;;
62030;SDS011;62035;52.094;5.112;2023-04-23T08:48:39;13.15;;;4.93;;
62030;SDS011;62035;52.094;5.112;2023-04-23T08:51:09;13.57;;;4.60;;
62030;SDS011;62035;52.094;5.112;2023-04-23T08:53:43;9.35;;;4.05;;
62030;SDS011;62035;52.094;5.112;2023-04-23T08:56:17;10.50;;;3.90;;
62030;SDS011;62035;52.094;5.112;2023-04-23T08:58:47;14.68;;;4.65;;
62030;SDS011;62035;52.094;5.112;2023-04-23T09:01:16;13.07;;;4.30;;
62030;SDS011;62035;52.094;5.112;2023-04-23T09:03:45;22.33;;;4.28;;
62030;SDS011;62035;52.094;5.112;2023-04-23T09:06:14;13.35;;;4.53;;
62030;SDS011;62035;52.094;5.112;2023-04-23T09:08:42;14.27;;;4.47;;
62030;SDS011;62035;52.094;5.112;2023-04-23T09:11:12;11.75;;;4.40;;
62030;SDS011;62035;52.094;5.112;2023-04-23T09:13:43;15.73;;;4.57;;
62030;SDS011;62035;52.094;5.112;2023-04-23T09:16:10;14.50;;;4.03;;
62030;SDS011;62035;52.094;5.112;2023-04-23T09:18:38;13.55;;;3.75;;
62030;SDS011;62035;52.094;5.112;2023-04-23T09:21:06;11.23;;;3.70;;
62030;SDS011;62035;52.094;5.112;2023-04-23T09:23:37;11.95;;;3.90;;
62030;SDS011;62035;52.094;5.112;2023-04-23T09:26:06;9.45;;;3.60;;
62030;SDS011;62035;52.094;5.112;2023-04-23T09:28:34;8.30;;;3.17;;
62030;SDS011;62035;52.094;5.112;2023-04-23T09:31:03;12.63;;;3.70;;
62030;SDS011;62035;52.094;5.112;2023-04-23T09:33:33;10.50;;;3.58;;
62030;SDS011;62035;52.094;5.112;2023-04-23T09:36:04;10.73;;;3.40;;
62030;SDS011;62035;52.094;5.112;2023-04-23T09:38:38;12.07;;;2.88;;
62030;SDS011;62035;52.094;5.112;2023-04-23T09:41:19;8.25;;;3.97;;
62030;SDS011;62035;52.094;5.112;2023-04-23T09:43:48;10.85;;;3.35;;
62030;SDS011;62035;52.094;5.112;2023-04-23T09:46:15;13.20;;;4.35;;
62030;SDS011;62035;52.094;5.112;2023-04-23T09:48:43;9.40;;;3.70;;
62030;SDS011;62035;52.094;5.112;2023-04-23T09:51:12;13.05;;;3.67;;
62030;SDS011;62035;52.094;5.112;2023-04-23T09:53:41;8.98;;;3.30;;
62030;SDS011;62035;52.094;5.112;2023-04-23T09:56:10;7.10;;;3.00;;
62030;SDS011;62035;52.094;5.112;2023-04-23T09:58:38;9.35;;;2.63;;
62030;SDS011;62035;52.094;5.112;2023-04-23T10:01:06;12.38;;;3.50;;
62030;SDS011;62035;52.094;5.112;2023-04-23T10:03:34;12.13;;;3.50;;
62030;SDS011;62035;52.094;5.112;2023-04-23T10:06:02;14.82;;;3.17;;
62030;SDS011;62035;52.094;5.112;2023-04-23T10:08:30;11.45;;;3.08;;
62030;SDS011;62035;52.094;5.112;2023-04-23T10:10:59;12.73;;;3.33;;
62030;SDS011;62035;52.094;5.112;2023-04-23T10:13:27;11.77;;;3.22;;
62030;SDS011;62035;52.094;5.112;2023-04-23T10:15:55;9.10;;;2.75;;
62030;SDS011;62035;52.094;5.112;2023-04-23T10:18:23;11.90;;;2.85;;
62030;SDS011;62035;52.094;5.112;2023-04-23T10:20:51;9.90;;;3.00;;
62030;SDS011;62035;52.094;5.112;2023-04-23T10:23:19;12.20;;;3.00;;
62030;SDS011;62035;52.094;5.112;2023-04-23T10:25:50;8.27;;;2.63;;
62030;SDS011;62035;52.094;5.112;2023-04-23T10:28:22;9.02;;;2.53;;
62030;SDS011;62035;52.094;5.112;2023-04-23T10:30:57;9.05;;;2.47;;
62030;SDS011;62035;52.094;5.112;2023-04-23T10:33:26;9.63;;;2.70;;
62030;SDS011;62035;52.094;5.112;2023-04-23T10:35:57;9.30;;;2.28;;
62030;SDS011;62035;52.094;5.112;2023-04-23T10:38:26;11.32;;;2.88;;
62030;SDS011;62035;52.094;5.112;2023-04-23T10:40:54;11.52;;;2.63;;
62030;SDS011;62035;52.094;5.112;2023-04-23T10:43:28;9.98;;;2.08;;
62030;SDS011;62035;52.094;5.112;2023-04-23T10:45:56;8.90;;;2.20;;
62030;SDS011;62035;52.094;5.112;2023-04-23T10:48:24;11.48;;;2.33;;
62030;SDS011;62035;52.094;5.112;2023-04-23T10:50:56;12.75;;;2.42;;
62030;SDS011;62035;52.094;5.112;2023-04-23T10:53:24;10.65;;;2.15;;
62030;SDS011;62035;52.094;5.112;2023-04-23T10:56:03;9.70;;;2.30;;
62030;SDS011;62035;52.094;5.112;2023-04-23T11:01:17;9.38;;;2.42;;
62030;SDS011;62035;52.094;5.112;2023-04-23T11:03:46;7.40;;;2.47;;
62030;SDS011;62035;52.094;5.112;2023-04-23T11:06:17;8.70;;;2.25;;
62030;SDS011;62035;52.094;5.112;2023-04-23T11:09:26;10.18;;;2.40;;
62030;SDS011;62035;52.094;5.112;2023-04-23T11:12:04;7.32;;;1.90;;
62030;SDS011;62035;52.094;5.112;2023-04-23T11:14:36;11.93;;;2.35;;
62030;SDS011;62035;52.094;5.112;2023-04-23T11:17:12;11.18;;;2.17;;
62030;SDS011;62035;52.094;5.112;2023-04-23T11:22:35;11.27;;;2.55;;
62030;SDS011;62035;52.094;5.112;2023-04-23T11:25:07;7.57;;;1.88;;
62030;SDS011;62035;52.094;5.112;2023-04-23T11:27:37;6.47;;;2.00;;
62030;SDS011;62035;52.094;5.112;2023-04-23T11:30:11;9.00;;;2.10;;
62030;SDS011;62035;52.094;5.112;2023-04-23T11:32:42;14.57;;;1.90;;
62030;SDS011;62035;52.094;5.112;2023-04-23T11:35:13;10.07;;;2.05;;
62030;SDS011;62035;52.094;5.112;2023-04-23T11:37:42;7.80;;;2.35;;
62030;SDS011;62035;52.094;5.112;2023-04-23T11:40:13;11.15;;;2.30;;
62030;SDS011;62035;52.094;5.112;2023-04-23T11:42:44;12.85;;;2.22;;
62030;SDS011;62035;52.094;5.112;2023-04-23T11:45:19;8.40;;;1.77;;
62030;SDS011;62035;52.094;5.112;2023-04-23T11:47:48;10.82;;;2.05;;
62030;SDS011;62035;52.094;5.112;2023-04-23T11:50:21;6.32;;;1.63;;
62030;SDS011;62035;52.094;5.112;2023-04-23T11:52:50;5.93;;;1.88;;
62030;SDS011;62035;52.094;5.112;2023-04-23T11:55:18;6.43;;;2.10;;
62030;SDS011;62035;52.094;5.112;2023-04-23T11:57:47;5.25;;;1.70;;
62030;SDS011;62035;52.094;5.112;2023-04-23T12:00:19;7.82;;;1.73;;
62030;SDS011;62035;52.094;5.112;2023-04-23T12:02:49;4.72;;;1.83;;
62030;SDS011;62035;52.094;5.112;2023-04-23T12:05:19;8.73;;;1.90;;
62030;SDS011;62035;52.094;5.112;2023-04-23T12:07:48;7.32;;;1.95;;
62030;SDS011;62035;52.094;5.112;2023-04-23T12:10:18;10.27;;;2.17;;
62030;SDS011;62035;52.094;5.112;2023-04-23T12:12:48;13.10;;;1.92;;
62030;SDS011;62035;52.094;5.112;2023-04-23T12:15:19;6.03;;;1.50;;
62030;SDS011;62035;52.094;5.112;2023-04-23T12:17:47;5.15;;;1.95;;
62030;SDS011;62035;52.094;5.112;2023-04-23T12:20:19;7.05;;;1.77;;
62030;SDS011;62035;52.094;5.112;2023-04-23T12:22:47;7.00;;;1.67;;
62030;SDS011;62035;52.094;5.112;2023-04-23T12:25:15;7.15;;;1.75;;
62030;SDS011;62035;52.094;5.112;2023-04-23T12:27:47;3.78;;;1.90;;
62030;SDS011;62035;52.094;5.112;2023-04-23T12:30:15;8.25;;;1.63;;
62030;SDS011;62035;52.094;5.112;2023-04-23T12:32:44;7.82;;;1.67;;
62030;SDS011;62035;52.094;5.112;2023-04-23T12:35:11;5.60;;;1.85;;
62030;SDS011;62035;52.094;5.112;2023-04-23T12:37:39;5.35;;;1.63;;
62030;SDS011;62035;52.094;5.112;2023-04-23T12:40:07;7.68;;;1.80;;
62030;SDS011;62035;52.094;5.112;2023-04-23T12:42:37;6.25;;;1.90;;
62030;SDS011;62035;52.094;5.112;2023-04-23T12:45:06;9.85;;;2.03;;
62030;SDS011;62035;52.094;5.112;2023-04-23T12:47:35;6.28;;;1.90;;
62030;SDS011;62035;52.094;5.112;2023-04-23T12:50:05;4.82;;;2.53;;
62030;SDS011;62035;52.094;5.112;2023-04-23T12:52:33;9.85;;;1.90;;
62030;SDS011;62035;52.094;5.112;2023-04-23T12:55:01;5.57;;;1.92;;
62030;SDS011;62035;52.094;5.112;2023-04-23T12:57:29;10.13;;;1.77;;
62030;SDS011;62035;52.094;5.112;2023-04-23T12:59:57;7.45;;;2.15;;
62030;SDS011;62035;52.094;5.112;2023-04-23T13:02:24;6.05;;;1.63;;
62030;SDS011;62035;52.094;5.112;2023-04-23T13:04:52;6.28;;;1.90;;
62030;SDS011;62035;52.094;5.112;2023-04-23T13:07:26;10.18;;;2.22;;
62030;SDS011;62035;52.094;5.112;2023-04-23T13:09:55;7.38;;;1.88;;
62030;SDS011;62035;52.094;5.112;2023-04-23T13:12:24;7.50;;;2.00;;
62030;SDS011;62035;52.094;5.112;2023-04-23T13:14:51;6.85;;;2.17;;
62030;SDS011;62035;52.094;5.112;2023-04-23T13:17:19;6.80;;;2.00;;
62030;SDS011;62035;52.094;5.112;2023-04-23T13:19:47;9.07;;;2.30;;
62030;SDS011;62035;52.094;5.112;2023-04-23T13:22:15;6.47;;;1.90;;
62030;SDS011;62035;52.094;5.112;2023-04-23T13:24:44;5.65;;;1.80;;
62030;SDS011;62035;52.094;5.112;2023-04-23T13:27:11;10.90;;;1.90;;
62030;SDS011;62035;52.094;5.112;2023-04-23T13:29:39;5.97;;;1.95;;
62030;SDS011;62035;52.094;5.112;2023-04-23T13:32:07;4.43;;;1.70;;
62030;SDS011;62035;52.094;5.112;2023-04-23T13:34:34;7.75;;;1.88;;
62030;SDS011;62035;52.094;5.112;2023-04-23T13:37:02;8.38;;;2.05;;
62030;SDS011;62035;52.094;5.112;2023-04-23T13:39:31;8.70;;;1.80;;
62030;SDS011;62035;52.094;5.112;2023-04-23T13:42:00;7.50;;;2.03;;
62030;SDS011;62035;52.094;5.112;2023-04-23T13:44:29;7.93;;;2.17;;
62030;SDS011;62035;52.094;5.112;2023-04-23T13:46:56;10.25;;;2.50;;
62030;SDS011;62035;52.094;5.112;2023-04-23T13:49:24;9.65;;;2.20;;
62030;SDS011;62035;52.094;5.112;2023-04-23T13:51:53;6.57;;;1.90;;
62030;SDS011;62035;52.094;5.112;2023-04-23T13:54:23;7.95;;;1.92;;
62030;SDS011;62035;52.094;5.112;2023-04-23T13:56:52;5.18;;;2.22;;
62030;SDS011;62035;52.094;5.112;2023-04-23T13:59:22;9.90;;;2.15;;
62030;SDS011;62035;52.094;5.112;2023-04-23T14:01:50;10.43;;;2.22;;
62030;SDS011;62035;52.094;5.112;2023-04-23T14:04:20;7.13;;;2.15;;
62030;SDS011;62035;52.094;5.112;2023-04-23T14:06:48;7.45;;;2.50;;
62030;SDS011;62035;52.094;5.112;2023-04-23T14:09:16;6.40;;;1.95;;
62030;SDS011;62035;52.094;5.112;2023-04-23T14:11:46;6.75;;;2.15;;
62030;SDS011;62035;52.094;5.112;2023-04-23T14:14:14;10.00;;;2.33;;
62030;SDS011;62035;52.094;5.112;2023-04-23T14:16:44;6.53;;;2.10;;
62030;SDS011;62035;52.094;5.112;2023-04-23T14:19:11;7.50;;;2.50;;
62030;SDS011;62035;52.094;5.112;2023-04-23T14:21:39;9.15;;;2.20;;
62030;SDS011;62035;52.094;5.112;2023-04-23T14:24:07;7.47;;;2.08;;
62030;SDS011;62035;52.094;5.112;2023-04-23T14:26:42;6.50;;;1.98;;
62030;SDS011;62035;52.094;5.112;2023-04-23T14:29:17;3.90;;;1.70;;
62030;SDS011;62035;52.094;5.112;2023-04-23T14:31:51;7.53;;;2.30;;
62030;SDS011;62035;52.094;5.112;2023-04-23T14:34:19;5.13;;;1.85;;
62030;SDS011;62035;52.094;5.112;2023-04-23T14:36:47;9.63;;;2.03;;
62030;SDS011;62035;52.094;5.112;2023-04-23T14:39:15;6.90;;;2.35;;
62030;SDS011;62035;52.094;5.112;2023-04-23T14:41:42;7.32;;;1.90;;
62030;SDS011;62035;52.094;5.112;2023-04-23T14:44:10;7.32;;;2.40;;
62030;SDS011;62035;52.094;5.112;2023-04-23T14:46:38;11.10;;;2.50;;